Lannon, Wisconsin
Current Conditions -  °F | °C
As of 1:45 PM on Wednesday 26 Nov 2014 (Local Time) from KMWC Reporting Station
Overcast Overcast  
Wind Chill: 28°   Ceiling: 2200
Heat Index: 28°   Visibility: 10mi
Dew Point: 19°   Wind: 0mph
Humidity: 69%   Direction: NA
Pressure: 30.12"   Gusts: NA
Location:  43.15°N, 88.17°W
Report Text: KMWC 261945Z AUTO 00000KT 10SM OVC022 M02/M07 A3012
Loading
Personal Weather Stations






























Interactive Weather Map New forecast layout! Learn more

10-Day Weather Forecast

Advertisements
Track Severe Weather on mobile